createdAt,value
2024-05-09T00:00:41.255Z,11.00
2024-05-09T00:03:27.395Z,11.00
2024-05-09T00:06:13.207Z,11.00
2024-05-09T00:08:58.684Z,11.00
2024-05-09T00:11:44.515Z,11.00
2024-05-09T00:14:30.267Z,11.00
2024-05-09T00:17:16.230Z,10.90
2024-05-09T00:20:02.004Z,10.90
2024-05-09T00:22:47.678Z,10.90
2024-05-09T00:25:33.257Z,10.80
2024-05-09T00:28:18.788Z,10.80
2024-05-09T00:31:04.632Z,10.80
2024-05-09T00:33:50.057Z,10.80
2024-05-09T00:36:35.406Z,10.80
2024-05-09T00:39:21.089Z,10.80
2024-05-09T00:42:06.491Z,10.70
2024-05-09T00:44:52.163Z,10.70
2024-05-09T00:47:38.075Z,10.70
2024-05-09T00:50:29.962Z,10.60
2024-05-09T00:53:21.467Z,10.60
2024-05-09T00:56:09.711Z,10.50
2024-05-09T00:58:55.833Z,10.50
2024-05-09T01:01:43.050Z,10.40
2024-05-09T01:04:28.837Z,10.40
2024-05-09T01:07:14.497Z,10.40
2024-05-09T01:09:59.860Z,10.40
2024-05-09T01:12:45.831Z,10.50
2024-05-09T01:15:31.440Z,10.40
2024-05-09T01:18:17.137Z,10.40
2024-05-09T01:21:04.408Z,10.30
2024-05-09T01:23:56.011Z,10.30
2024-05-09T01:26:41.650Z,10.30
2024-05-09T01:29:27.120Z,10.30
2024-05-09T01:32:12.710Z,10.20
2024-05-09T01:34:58.086Z,10.20
2024-05-09T01:37:46.325Z,10.20
2024-05-09T01:40:37.582Z,10.20
2024-05-09T01:43:25.682Z,10.20
2024-05-09T01:46:17.347Z,10.20
2024-05-09T01:49:04.584Z,10.30
2024-05-09T01:51:50.505Z,10.20
2024-05-09T01:54:37.242Z,10.20
2024-05-09T01:57:22.659Z,10.20
2024-05-09T02:00:10.411Z,10.20
2024-05-09T02:02:56.580Z,10.20
2024-05-09T02:05:43.301Z,10.20
2024-05-09T02:08:29.280Z,10.20
2024-05-09T02:11:14.885Z,10.30
2024-05-09T02:14:00.386Z,10.20
2024-05-09T02:16:46.753Z,10.20
2024-05-09T02:19:32.759Z,10.20
2024-05-09T02:22:18.302Z,10.20
2024-05-09T02:25:04.429Z,10.20
2024-05-09T02:27:50.242Z,10.20
2024-05-09T02:30:40.462Z,10.20
2024-05-09T02:33:28.496Z,10.20
2024-05-09T02:36:14.417Z,10.20
2024-05-09T02:39:00.115Z,10.10
2024-05-09T02:41:45.606Z,10.10
2024-05-09T02:44:31.358Z,10.10
2024-05-09T02:47:16.794Z,10.10
2024-05-09T02:50:02.509Z,10.00
2024-05-09T02:52:48.383Z,9.90
2024-05-09T02:55:34.607Z,9.90
2024-05-09T02:58:20.087Z,9.80
2024-05-09T03:01:05.734Z,9.90
2024-05-09T03:03:52.197Z,9.80
2024-05-09T03:06:42.004Z,9.80
2024-05-09T03:09:28.013Z,9.80
2024-05-09T03:12:14.110Z,9.80
2024-05-09T03:14:59.643Z,9.80
2024-05-09T03:17:46.173Z,9.90
2024-05-09T03:20:34.976Z,9.90
2024-05-09T03:23:21.933Z,9.90
2024-05-09T03:26:16.109Z,9.80
2024-05-09T03:29:01.655Z,9.80
2024-05-09T03:31:47.358Z,9.80
2024-05-09T03:34:32.955Z,9.80
2024-05-09T03:37:18.309Z,9.90
2024-05-09T03:40:07.358Z,9.90
2024-05-09T03:42:57.065Z,9.80
2024-05-09T03:45:43.486Z,9.80
2024-05-09T03:48:29.171Z,9.80
2024-05-09T03:51:15.386Z,9.80
2024-05-09T03:54:00.896Z,9.80
2024-05-09T03:56:46.572Z,9.80
2024-05-09T03:59:32.039Z,9.80
2024-05-09T04:02:17.644Z,9.70
2024-05-09T04:05:03.226Z,9.70
2024-05-09T04:07:48.631Z,9.80
2024-05-09T04:10:35.261Z,9.80
2024-05-09T04:13:20.796Z,9.80
2024-05-09T04:16:09.161Z,9.90
2024-05-09T04:18:54.686Z,9.80
2024-05-09T04:21:40.314Z,9.90
2024-05-09T04:24:25.822Z,9.90
2024-05-09T04:27:11.593Z,10.00
2024-05-09T04:29:56.971Z,10.00
2024-05-09T04:32:42.774Z,10.00
2024-05-09T04:35:28.604Z,10.10
2024-05-09T04:38:14.757Z,10.10
2024-05-09T04:41:01.152Z,10.20
2024-05-09T04:43:46.430Z,10.20
2024-05-09T04:46:32.136Z,10.20
2024-05-09T04:49:17.997Z,10.30
2024-05-09T04:52:03.839Z,10.30
2024-05-09T04:54:49.373Z,10.40
2024-05-09T04:57:34.892Z,10.40
2024-05-09T05:00:28.497Z,10.50
2024-05-09T05:03:20.772Z,10.50
2024-05-09T05:06:06.594Z,10.50
2024-05-09T05:08:52.123Z,10.60
2024-05-09T05:11:37.715Z,10.60
2024-05-09T05:14:23.093Z,10.70
2024-05-09T05:17:08.624Z,10.70
2024-05-09T05:19:54.437Z,10.80
2024-05-09T05:22:43.176Z,10.80
2024-05-09T05:25:29.095Z,10.90
2024-05-09T05:28:19.712Z,10.90
2024-05-09T05:31:05.733Z,11.00
2024-05-09T05:33:51.103Z,11.00
2024-05-09T05:36:36.445Z,11.00
2024-05-09T05:39:22.077Z,11.10
2024-05-09T05:42:07.897Z,11.20
2024-05-09T05:44:55.366Z,11.20
2024-05-09T05:47:41.367Z,11.30
2024-05-09T05:50:32.855Z,11.30
2024-05-09T05:53:21.886Z,11.40
2024-05-09T05:56:07.421Z,11.50
2024-05-09T05:58:53.166Z,11.50
2024-05-09T06:01:38.627Z,11.60
2024-05-09T06:04:24.211Z,11.70
2024-05-09T06:07:09.738Z,11.80
2024-05-09T06:09:56.062Z,11.80
2024-05-09T06:12:41.856Z,11.90
2024-05-09T06:15:28.097Z,12.00
2024-05-09T06:18:14.400Z,12.10
2024-05-09T06:21:00.408Z,12.10
2024-05-09T06:23:47.147Z,12.20
2024-05-09T06:26:33.708Z,12.30
2024-05-09T06:29:19.382Z,12.30
2024-05-09T06:32:05.505Z,12.40
2024-05-09T06:34:51.460Z,12.40
2024-05-09T06:37:37.021Z,12.50
2024-05-09T06:40:25.898Z,12.60
2024-05-09T06:43:20.060Z,12.60
2024-05-09T06:46:05.717Z,12.70
2024-05-09T06:48:52.721Z,12.80
2024-05-09T06:51:38.905Z,12.80
2024-05-09T06:54:24.508Z,12.90
2024-05-09T06:57:10.133Z,13.00
2024-05-09T06:59:59.708Z,13.00
2024-05-09T07:02:45.995Z,13.10
2024-05-09T07:05:31.822Z,13.20
2024-05-09T07:08:17.866Z,13.20
2024-05-09T07:11:04.494Z,13.30
2024-05-09T07:13:50.303Z,13.40
2024-05-09T07:16:35.913Z,13.40
2024-05-09T07:19:21.624Z,13.50
2024-05-09T07:22:07.312Z,13.60
2024-05-09T07:24:53.849Z,13.70
2024-05-09T07:27:39.787Z,13.80
2024-05-09T07:30:32.715Z,13.80
2024-05-09T07:33:22.557Z,13.90
2024-05-09T07:36:09.546Z,14.00
2024-05-09T07:38:55.335Z,14.00
2024-05-09T07:41:40.756Z,14.10
2024-05-09T07:44:26.530Z,14.20
2024-05-09T07:48:27.658Z,14.30
2024-05-09T07:53:36.365Z,14.50
2024-05-09T07:56:12.176Z,14.60
2024-05-09T07:58:58.083Z,14.70
2024-05-09T08:01:44.110Z,14.70
2024-05-09T08:04:30.127Z,14.90
2024-05-09T08:07:18.862Z,15.00
2024-05-09T08:10:06.571Z,15.20
2024-05-09T08:12:54.002Z,15.40
2024-05-09T08:15:39.988Z,15.60
2024-05-09T08:18:26.888Z,15.70
2024-05-09T08:21:12.312Z,15.90
2024-05-09T08:23:57.788Z,15.90
2024-05-09T08:26:43.338Z,16.00
2024-05-09T08:29:28.874Z,16.10
2024-05-09T08:32:14.509Z,16.30
2024-05-09T08:35:04.586Z,16.50
2024-05-09T08:37:50.388Z,16.80
2024-05-09T08:40:37.766Z,17.10
2024-05-09T08:43:26.681Z,17.30
2024-05-09T08:46:13.517Z,17.40
2024-05-09T08:49:00.799Z,17.50
2024-05-09T08:51:46.816Z,17.60
2024-05-09T08:54:32.604Z,17.60
2024-05-09T08:57:19.146Z,17.70
2024-05-09T09:00:10.320Z,17.90
2024-05-09T09:03:00.945Z,18.30
2024-05-09T09:06:02.451Z,18.70
2024-05-09T09:08:49.369Z,19.10
2024-05-09T09:11:35.293Z,19.40
2024-05-09T09:14:20.757Z,19.70
2024-05-09T09:17:15.738Z,20.10
2024-05-09T09:20:01.289Z,20.50
2024-05-09T09:22:46.666Z,20.70
2024-05-09T09:25:32.358Z,20.90
2024-05-09T09:28:18.249Z,21.10
2024-05-09T09:31:04.648Z,21.20
2024-05-09T09:33:50.808Z,21.30
2024-05-09T09:36:39.265Z,21.50
2024-05-09T09:39:29.811Z,21.60
2024-05-09T09:42:18.245Z,21.80
2024-05-09T09:45:05.885Z,21.90
2024-05-09T09:47:56.396Z,21.90
2024-05-09T09:50:43.207Z,22.00
2024-05-09T09:53:29.345Z,22.10
2024-05-09T09:56:17.953Z,22.20
2024-05-09T09:59:05.138Z,22.50
2024-05-09T10:01:51.057Z,22.80
2024-05-09T10:04:36.889Z,22.80
2024-05-09T10:07:23.142Z,23.20
2024-05-09T10:10:13.744Z,23.90
2024-05-09T10:13:05.312Z,24.10
2024-05-09T10:15:53.181Z,24.20
2024-05-09T10:18:40.846Z,24.30
2024-05-09T10:21:27.028Z,24.40
2024-05-09T10:24:12.995Z,24.40
2024-05-09T10:26:58.700Z,24.70
2024-05-09T10:29:57.711Z,24.70
2024-05-09T10:32:45.052Z,24.40
2024-05-09T10:35:32.017Z,24.40
2024-05-09T10:38:18.160Z,24.40
2024-05-09T10:41:03.872Z,24.40
2024-05-09T10:43:51.255Z,24.50
2024-05-09T10:46:36.924Z,24.30
2024-05-09T10:49:22.538Z,24.00
2024-05-09T10:52:08.850Z,23.90
2024-05-09T10:54:55.006Z,24.00
2024-05-09T10:57:41.180Z,24.10
2024-05-09T11:00:35.761Z,24.30
2024-05-09T11:03:25.975Z,24.70
2024-05-09T11:06:11.995Z,24.90
2024-05-09T11:09:00.652Z,24.90
2024-05-09T11:11:46.211Z,24.90
2024-05-09T11:14:31.920Z,25.10
2024-05-09T11:17:17.448Z,25.40
2024-05-09T11:20:10.490Z,25.60
2024-05-09T11:22:59.126Z,25.60
2024-05-09T11:25:52.679Z,25.50
2024-05-09T11:28:38.689Z,25.50
2024-05-09T11:31:24.838Z,25.20
2024-05-09T11:34:10.508Z,24.80
2024-05-09T11:36:56.083Z,24.40
2024-05-09T11:39:41.815Z,24.10
2024-05-09T11:42:27.559Z,24.10
2024-05-09T11:45:13.159Z,24.20
2024-05-09T11:47:58.748Z,24.10
2024-05-09T11:50:44.633Z,24.30
2024-05-09T11:53:30.232Z,24.60
2024-05-09T11:56:17.411Z,25.00
2024-05-09T11:59:03.177Z,25.40
2024-05-09T12:01:49.124Z,25.80
2024-05-09T12:04:35.182Z,26.00
2024-05-09T12:07:22.845Z,26.30
2024-05-09T12:10:14.163Z,26.70
2024-05-09T12:13:06.571Z,26.90
2024-05-09T12:15:54.197Z,26.80
2024-05-09T12:18:39.922Z,26.60
2024-05-09T12:21:25.408Z,26.90
2024-05-09T12:24:11.061Z,27.30
2024-05-09T12:26:57.426Z,27.80
2024-05-09T12:29:46.054Z,28.40
2024-05-09T12:32:31.895Z,28.60
2024-05-09T12:35:17.348Z,29.20
2024-05-09T12:38:03.632Z,29.50
2024-05-09T12:40:49.370Z,29.30
2024-05-09T12:43:35.239Z,29.30
2024-05-09T12:46:20.809Z,29.20
2024-05-09T12:49:06.395Z,28.80
2024-05-09T12:51:52.679Z,28.40
2024-05-09T12:54:38.031Z,27.70
2024-05-09T12:57:23.676Z,27.30
2024-05-09T13:00:20.206Z,26.90
2024-05-09T13:03:09.440Z,26.50
2024-05-09T13:05:55.441Z,26.20
2024-05-09T13:08:40.950Z,26.20
2024-05-09T13:11:26.644Z,26.20
2024-05-09T13:14:12.289Z,26.40
2024-05-09T13:16:57.920Z,26.40
2024-05-09T13:19:43.441Z,26.10
2024-05-09T13:22:29.276Z,25.80
2024-05-09T13:25:15.339Z,25.50
2024-05-09T13:28:01.516Z,25.20
2024-05-09T13:30:47.087Z,24.80
2024-05-09T13:33:33.458Z,24.40
2024-05-09T13:36:19.067Z,24.00
2024-05-09T13:39:04.699Z,23.60
2024-05-09T13:41:50.288Z,23.40
2024-05-09T13:44:35.873Z,23.60
2024-05-09T13:47:22.257Z,24.00
2024-05-09T13:50:16.776Z,24.30
2024-05-09T13:53:09.185Z,25.50
2024-05-09T13:55:55.223Z,26.00
2024-05-09T13:58:42.144Z,26.30
2024-05-09T14:01:27.667Z,27.70
2024-05-09T14:04:13.495Z,28.50
2024-05-09T14:06:59.367Z,28.80
2024-05-09T14:09:48.235Z,29.00
2024-05-09T14:12:36.702Z,29.40
2024-05-09T14:15:22.145Z,30.00
2024-05-09T14:18:12.283Z,31.20
2024-05-09T14:20:59.681Z,32.60
2024-05-09T14:23:45.352Z,32.70
2024-05-09T14:26:30.923Z,32.00
2024-05-09T14:29:16.601Z,31.80
2024-05-09T14:32:05.240Z,30.90
2024-05-09T14:34:50.895Z,31.00
2024-05-09T14:37:39.302Z,31.30
2024-05-09T14:40:36.853Z,31.30
2024-05-09T14:43:27.200Z,30.70
2024-05-09T14:46:13.282Z,31.80
2024-05-09T14:49:00.102Z,32.70
2024-05-09T14:51:47.973Z,33.30
2024-05-09T14:54:33.666Z,34.40
2024-05-09T14:57:22.166Z,35.30
2024-05-09T15:00:16.979Z,35.40
2024-05-09T15:03:07.165Z,34.40
2024-05-09T15:05:53.089Z,33.90
2024-05-09T15:08:38.826Z,35.00
2024-05-09T15:11:24.896Z,35.80
2024-05-09T15:14:10.616Z,36.50
2024-05-09T15:16:57.249Z,37.20
2024-05-09T15:19:45.270Z,37.50
2024-05-09T15:22:30.960Z,37.80
2024-05-09T15:25:16.656Z,37.90
2024-05-09T15:28:02.318Z,38.20
2024-05-09T15:30:57.427Z,38.00
2024-05-09T15:33:43.281Z,38.70
2024-05-09T15:36:31.608Z,39.40
2024-05-09T15:39:17.577Z,39.40
2024-05-09T15:42:03.500Z,40.00
2024-05-09T15:44:53.107Z,39.70
2024-05-09T15:47:41.775Z,39.80
2024-05-09T15:50:36.421Z,39.80
2024-05-09T15:53:25.420Z,39.70
2024-05-09T15:56:10.986Z,39.00
2024-05-09T15:58:56.599Z,38.60
2024-05-09T16:01:45.532Z,38.80
2024-05-09T16:04:31.573Z,38.80
2024-05-09T16:07:17.359Z,38.50
2024-05-09T16:10:06.565Z,39.00
2024-05-09T16:12:52.544Z,39.50
2024-05-09T16:15:37.930Z,39.60
2024-05-09T16:18:23.627Z,39.10
2024-05-09T16:21:09.103Z,39.30
2024-05-09T16:23:54.927Z,40.20
2024-05-09T16:26:40.602Z,40.40
2024-05-09T16:29:26.668Z,39.70
2024-05-09T16:32:12.343Z,39.60
2024-05-09T16:34:57.779Z,40.30
2024-05-09T16:37:45.077Z,40.10
2024-05-09T16:40:37.811Z,39.70
2024-05-09T16:43:26.600Z,39.70
2024-05-09T16:46:12.130Z,39.60
2024-05-09T16:48:57.902Z,39.40
2024-05-09T16:51:43.493Z,38.50
2024-05-09T16:54:28.898Z,36.50
2024-05-09T16:57:17.537Z,35.50
2024-05-09T17:00:09.255Z,34.10
2024-05-09T17:02:57.332Z,32.80
2024-05-09T17:05:43.485Z,31.90
2024-05-09T17:08:29.237Z,31.40
2024-05-09T17:11:15.541Z,31.60
2024-05-09T17:14:01.104Z,31.20
2024-05-09T17:16:46.862Z,30.40
2024-05-09T17:19:32.458Z,29.20
2024-05-09T17:22:17.972Z,28.10
2024-05-09T17:25:04.230Z,27.40
2024-05-09T17:27:49.971Z,26.70
2024-05-09T17:30:38.411Z,26.00
2024-05-09T17:33:26.373Z,25.40
2024-05-09T17:36:11.956Z,24.90
2024-05-09T17:38:57.651Z,24.30
2024-05-09T17:41:46.520Z,24.00
2024-05-09T17:44:32.363Z,23.80
2024-05-09T17:47:17.981Z,23.50
2024-05-09T17:50:05.563Z,23.30
2024-05-09T17:52:53.659Z,23.20
2024-05-09T17:55:40.558Z,23.20
2024-05-09T17:58:26.503Z,23.10
2024-05-09T18:01:14.003Z,23.10
2024-05-09T18:03:59.752Z,22.80
2024-05-09T18:06:45.639Z,22.70
2024-05-09T18:09:31.657Z,22.50
2024-05-09T18:12:17.382Z,22.30
2024-05-09T18:15:03.011Z,22.10
2024-05-09T18:17:48.690Z,22.90
2024-05-09T18:20:41.984Z,23.50
2024-05-09T18:23:31.344Z,22.90
2024-05-09T18:26:17.130Z,22.30
2024-05-09T18:29:03.646Z,21.80
2024-05-09T18:31:49.329Z,21.30
2024-05-09T18:34:34.848Z,20.90
2024-05-09T18:37:23.610Z,20.60
2024-05-09T18:40:14.887Z,20.30
2024-05-09T18:43:05.949Z,20.00
2024-05-09T18:45:52.868Z,20.50
2024-05-09T18:48:38.613Z,21.10
2024-05-09T18:51:24.496Z,21.30
2024-05-09T18:54:13.101Z,21.40
2024-05-09T18:56:58.923Z,21.60
2024-05-09T18:59:46.837Z,21.50
2024-05-09T19:02:32.446Z,21.30
2024-05-09T19:05:18.638Z,21.00
2024-05-09T19:08:04.507Z,20.70
2024-05-09T19:10:52.340Z,20.30
2024-05-09T19:13:38.145Z,19.90
2024-05-09T19:16:23.934Z,19.60
2024-05-09T19:19:09.993Z,19.20
2024-05-09T19:21:57.924Z,19.00
2024-05-09T19:24:43.275Z,18.60
2024-05-09T19:27:28.880Z,18.30
2024-05-09T19:30:21.874Z,18.10
2024-05-09T19:33:15.840Z,18.00
2024-05-09T19:36:01.383Z,17.80
2024-05-09T19:38:48.261Z,17.70
2024-05-09T19:41:34.071Z,17.50
2024-05-09T19:44:19.872Z,17.40
2024-05-09T19:47:08.175Z,17.30
2024-05-09T19:49:53.760Z,17.10
2024-05-09T19:52:39.606Z,16.90
2024-05-09T19:55:25.003Z,16.80
2024-05-09T19:58:12.049Z,16.60
2024-05-09T20:00:58.387Z,16.40
2024-05-09T20:03:44.226Z,16.30
2024-05-09T20:06:30.692Z,16.20
2024-05-09T20:09:16.531Z,16.00
2024-05-09T20:12:03.527Z,15.90
2024-05-09T20:14:49.191Z,15.80
2024-05-09T20:17:35.003Z,15.70
2024-05-09T20:20:28.654Z,15.60
2024-05-09T20:23:22.293Z,15.50
2024-05-09T20:26:08.936Z,15.40
2024-05-09T20:28:54.522Z,15.30
2024-05-09T20:31:41.290Z,15.20
2024-05-09T20:34:26.934Z,15.10
2024-05-09T20:37:12.673Z,15.10
2024-05-09T20:39:58.511Z,15.00
2024-05-09T20:42:47.022Z,15.00
2024-05-09T20:45:32.814Z,14.90
2024-05-09T20:48:18.724Z,14.90
2024-05-09T20:51:04.945Z,14.80
2024-05-09T20:53:50.364Z,14.70
2024-05-09T20:56:36.153Z,14.70
2024-05-09T20:59:21.768Z,14.60
2024-05-09T21:02:07.698Z,14.50
2024-05-09T21:04:53.875Z,14.50
2024-05-09T21:07:39.595Z,14.40
2024-05-09T21:13:12.203Z,14.30
2024-05-09T21:15:57.824Z,14.30
2024-05-09T21:18:43.442Z,14.30
2024-05-09T21:21:28.646Z,14.20
2024-05-09T21:24:14.463Z,14.20
2024-05-09T21:27:00.132Z,14.30
2024-05-09T21:29:45.867Z,14.20
2024-05-09T21:32:31.322Z,14.20
2024-05-09T21:35:18.056Z,14.20
2024-05-09T21:38:04.568Z,14.20
2024-05-09T21:40:50.365Z,14.20
2024-05-09T21:43:37.753Z,14.10
2024-05-09T21:46:23.830Z,14.10
2024-05-09T21:49:10.871Z,14.10
2024-05-09T21:51:56.639Z,14.00
2024-05-09T21:54:42.090Z,14.00
2024-05-09T21:57:27.560Z,13.90
2024-05-09T22:00:28.273Z,13.90
2024-05-09T22:03:20.709Z,13.80
2024-05-09T22:06:06.339Z,13.80
2024-05-09T22:08:52.067Z,13.70
2024-05-09T22:11:37.758Z,13.60
2024-05-09T22:14:23.204Z,13.60
2024-05-09T22:17:08.869Z,13.60
2024-05-09T22:19:54.399Z,13.60
2024-05-09T22:22:41.439Z,13.60
2024-05-09T22:25:29.593Z,13.60
2024-05-09T22:28:16.205Z,13.60
2024-05-09T22:31:02.186Z,13.60
2024-05-09T22:33:48.510Z,13.60
2024-05-09T22:36:34.662Z,13.50
2024-05-09T22:39:23.340Z,13.50
2024-05-09T22:42:09.319Z,13.50
2024-05-09T22:44:54.894Z,13.50
2024-05-09T22:47:40.751Z,13.40
2024-05-09T22:50:30.626Z,13.40
2024-05-09T22:53:18.451Z,13.30
2024-05-09T22:56:04.311Z,13.30
2024-05-09T22:58:49.989Z,13.20
2024-05-09T23:01:35.511Z,13.30
2024-05-09T23:04:24.601Z,13.30
2024-05-09T23:07:10.596Z,13.20
2024-05-09T23:09:56.241Z,13.20
2024-05-09T23:12:41.783Z,13.20
2024-05-09T23:15:27.267Z,13.10
2024-05-09T23:18:13.037Z,13.10
2024-05-09T23:21:01.817Z,13.10
2024-05-09T23:23:47.947Z,13.10
2024-05-09T23:26:33.755Z,13.00
2024-05-09T23:29:19.179Z,13.00
2024-05-09T23:32:05.025Z,13.00
2024-05-09T23:34:50.878Z,13.00
2024-05-09T23:37:36.355Z,13.00
2024-05-09T23:40:23.434Z,13.00
2024-05-09T23:43:11.144Z,12.90
2024-05-09T23:45:57.526Z,12.90
2024-05-09T23:48:43.115Z,12.90
2024-05-09T23:51:28.660Z,12.90
2024-05-09T23:54:14.180Z,12.80
2024-05-09T23:56:59.751Z,12.80
2024-05-09T23:59:45.461Z,12.80
